Time;durP1;ratioP1;P1;durP2;ratioP2;P2;SDS_P1;SDS_P2;PMS_P1;PMS_P2;Temp;Humidity;BMP_temperature;BMP_pressure;BME280_temperature;BME280_humidity;BME280_pressure;Samples;Min_cycle;Max_cycle;Signal;HPM_P1;HPM_P2
2022/05/11 00:01:54;;;;;;;8.65;8.15;;;11.00;99.90;;;;;;4181428;28;20045;-81
2022/05/11 00:03:58;;;;;;;7.90;7.15;;;11.00;99.90;;;;;;4194153;28;20048;-81
2022/05/11 00:06:00;;;;;;;8.30;6.57;;;11.00;99.90;;;;;;4177394;28;20540;-80
2022/05/11 00:08:03;;;;;;;7.35;6.88;;;11.10;99.90;;;;;;4177343;28;20056;-81
2022/05/11 00:10:12;;;;;;;7.00;6.35;;;11.10;99.90;;;;;;4177450;28;20558;-81
2022/05/11 00:12:14;;;;;;;10.18;7.25;;;11.10;99.90;;;;;;4180060;28;20405;-81
2022/05/11 00:14:16;;;;;;;6.25;5.80;;;11.10;99.90;;;;;;4179640;28;20049;-81
2022/05/11 00:16:19;;;;;;;6.60;5.88;;;11.20;99.90;;;;;;4194944;28;20059;-81
2022/05/11 00:18:21;;;;;;;7.25;6.85;;;11.10;99.90;;;;;;4186569;28;20053;-81
2022/05/11 00:20:24;;;;;;;6.07;5.55;;;11.10;99.90;;;;;;4177305;28;20045;-81
2022/05/11 00:22:26;;;;;;;8.70;6.82;;;11.10;99.90;;;;;;4175960;28;20960;-80
2022/05/11 00:24:28;;;;;;;8.93;7.90;;;11.20;99.90;;;;;;4177206;28;20045;-81
2022/05/11 00:26:30;;;;;;;6.28;5.57;;;11.20;99.90;;;;;;4193485;28;20048;-81
2022/05/11 00:28:32;;;;;;;8.27;5.75;;;11.20;99.90;;;;;;4181603;28;20049;-81
2022/05/11 00:30:34;;;;;;;9.48;8.57;;;11.20;99.90;;;;;;4182030;28;20645;-81
2022/05/11 00:32:37;;;;;;;7.40;6.70;;;11.20;99.90;;;;;;4177274;28;20045;-81
2022/05/11 00:34:39;;;;;;;;;;;11.20;99.90;;;;;;4190642;28;20053;-81
2022/05/11 00:36:41;;;;;;;6.78;6.28;;;11.10;99.90;;;;;;4193037;28;19920;-80
2022/05/11 00:38:44;;;;;;;6.20;5.68;;;11.00;99.90;;;;;;4177010;28;20041;-81
2022/05/11 00:40:54;;;;;;;5.93;5.63;;;10.80;99.90;;;;;;4186351;28;20053;-81
2022/05/11 00:42:56;;;;;;;6.13;5.82;;;10.70;99.90;;;;;;4194136;28;20052;-81
2022/05/11 00:44:58;;;;;;;5.72;5.43;;;10.50;99.90;;;;;;4177884;28;20091;-81
2022/05/11 00:47:11;;;;;;;5.85;5.43;;;10.50;99.90;;;;;;4185869;28;20588;-81
2022/05/11 00:49:34;;;;;;;;;;;10.40;99.90;;;;;;4195131;28;20541;-81
2022/05/11 00:51:49;;;;;;;5.63;5.18;;;10.40;99.90;;;;;;4178409;28;19932;-81
2022/05/11 00:53:53;;;;;;;6.80;6.30;;;10.50;99.90;;;;;;4189762;28;20048;-81
2022/05/11 00:55:59;;;;;;;6.65;6.22;;;10.40;99.90;;;;;;4177246;28;20045;-81
2022/05/11 00:58:14;;;;;;;7.32;6.78;;;10.30;99.90;;;;;;4195742;28;20127;-81
2022/05/11 01:00:20;;;;;;;6.97;6.50;;;10.30;99.90;;;;;;4196286;28;20051;-78
2022/05/11 01:02:23;;;;;;;5.43;5.13;;;10.30;99.90;;;;;;4178473;28;20053;-77
2022/05/11 01:04:26;;;;;;;6.10;5.65;;;10.40;99.90;;;;;;4178375;28;20037;-77
2022/05/11 01:06:30;;;;;;;6.25;5.70;;;10.40;99.90;;;;;;4177187;28;20049;-77
2022/05/11 01:08:33;;;;;;;6.00;5.45;;;10.40;99.90;;;;;;4177966;28;20045;-78
2022/05/11 01:10:35;;;;;;;;;;;10.30;99.90;;;;;;4178135;28;20041;-77
2022/05/11 01:12:43;;;;;;;6.28;5.85;;;10.40;99.90;;;;;;4177243;28;19928;-77
2022/05/11 01:14:51;;;;;;;5.85;5.57;;;10.40;99.90;;;;;;4178818;28;20216;-77
2022/05/11 01:16:56;;;;;;;6.15;5.75;;;10.40;99.90;;;;;;4160726;28;20099;-78
2022/05/11 01:18:58;;;;;;;5.80;5.60;;;10.30;99.90;;;;;;4177556;28;20068;-78
2022/05/11 01:21:03;;;;;;;;;;;10.20;99.90;;;;;;4180805;28;20151;-77
2022/05/11 01:23:29;;;;;;;5.72;5.47;;;10.20;99.90;;;;;;4177080;28;19921;-78
2022/05/11 01:25:32;;;;;;;6.15;5.53;;;10.20;99.90;;;;;;4177590;28;20049;-77
2022/05/11 01:27:36;;;;;;;;;;;10.30;99.90;;;;;;4195557;28;20049;-80
2022/05/11 01:29:38;;;;;;;9.38;5.68;;;10.30;99.90;;;;;;4195263;28;20288;-77
2022/05/11 01:31:40;;;;;;;5.38;5.18;;;10.20;99.90;;;;;;4195159;28;20565;-78
2022/05/11 01:33:46;;;;;;;8.45;6.75;;;10.20;99.90;;;;;;4195141;28;20143;-77
2022/05/11 01:36:11;;;;;;;6.63;6.18;;;10.10;99.90;;;;;;4194928;28;20045;-78
2022/05/11 01:38:23;;;;;;;7.43;6.90;;;10.10;99.90;;;;;;4195225;28;20052;-77
2022/05/11 01:40:26;;;;;;;7.63;6.38;;;10.00;99.90;;;;;;4194198;28;20246;-77
2022/05/11 01:42:29;;;;;;;7.80;7.10;;;10.00;99.90;;;;;;4195428;28;20063;-78
2022/05/11 01:44:31;;;;;;;8.27;7.68;;;9.90;99.90;;;;;;4195246;28;20061;-78
2022/05/11 01:46:35;;;;;;;7.65;6.95;;;9.90;99.90;;;;;;4194191;28;20513;-77
2022/05/11 01:48:37;;;;;;;9.68;7.70;;;9.90;99.90;;;;;;4195456;28;20652;-77
2022/05/11 01:50:42;;;;;;;7.00;6.45;;;9.90;99.90;;;;;;4182843;28;20107;-77
2022/05/11 01:52:44;;;;;;;7.40;6.75;;;9.80;99.90;;;;;;4186285;28;20049;-77
2022/05/11 01:54:47;;;;;;;6.93;6.45;;;9.80;99.90;;;;;;4194841;28;20064;-77
2022/05/11 01:56:49;;;;;;;7.80;7.13;;;9.80;99.90;;;;;;4180422;28;20057;-77
2022/05/11 01:58:52;;;;;;;8.63;6.50;;;9.80;99.90;;;;;;4177760;28;20067;-77
2022/05/11 02:00:55;;;;;;;7.30;6.78;;;9.80;99.90;;;;;;4179099;28;20063;-78
2022/05/11 02:02:57;;;;;;;5.20;5.00;;;9.80;99.90;;;;;;4180462;28;20456;-77
2022/05/11 02:09:41;;;;;;;6.57;5.07;;;9.90;99.90;;;;;;4179589;28;20049;-77
2022/05/11 02:11:45;;;;;;;7.05;6.63;;;9.80;99.90;;;;;;4176682;28;20501;-77
2022/05/11 02:13:47;;;;;;;6.93;6.43;;;9.80;99.90;;;;;;4176665;28;20051;-78
2022/05/11 02:15:50;;;;;;;6.10;5.80;;;9.90;99.90;;;;;;4173914;28;20049;-77
2022/05/11 02:17:52;;;;;;;6.07;5.78;;;9.80;99.90;;;;;;4184097;28;20508;-77
2022/05/11 02:19:54;;;;;;;6.68;5.90;;;9.80;99.90;;;;;;4194674;28;20052;-77
2022/05/11 02:21:57;;;;;;;5.85;5.65;;;9.80;99.90;;;;;;4194152;28;20049;-77
2022/05/11 02:23:59;;;;;;;6.25;5.85;;;9.80;99.90;;;;;;4175522;28;20057;-77
2022/05/11 02:26:01;;;;;;;8.88;6.20;;;9.70;99.90;;;;;;4160707;28;20061;-77
2022/05/11 02:28:05;;;;;;;7.25;6.82;;;9.80;99.90;;;;;;4185337;28;20037;-78
2022/05/11 02:30:10;;;;;;;6.18;5.78;;;9.90;99.90;;;;;;4177926;28;20114;-78
2022/05/11 02:32:13;;;;;;;5.68;5.38;;;9.80;99.90;;;;;;4177884;28;20412;-78
2022/05/11 02:35:12;;;;;;;6.43;6.22;;;9.70;99.90;;;;;;4167108;28;20079;-77
2022/05/11 02:36:40;;;;;;;5.90;5.57;;;9.60;99.90;;;;;;4193926;28;20040;-77
2022/05/11 02:38:43;;;;;;;7.35;6.90;;;9.60;99.90;;;;;;4176795;28;20056;-77
2022/05/11 02:40:47;;;;;;;6.50;6.05;;;9.60;99.90;;;;;;4193112;28;20048;-78
2022/05/11 02:42:50;;;;;;;7.57;7.07;;;9.50;99.90;;;;;;4192835;28;20586;-77
2022/05/11 02:44:52;;;;;;;7.43;6.88;;;9.50;99.90;;;;;;4194034;28;20052;-78
2022/05/11 02:46:55;;;;;;;5.75;5.53;;;9.40;99.90;;;;;;4176055;28;20045;-77
2022/05/11 02:48:57;;;;;;;6.88;6.45;;;9.30;99.90;;;;;;4175938;28;20049;-77
2022/05/11 02:51:03;;;;;;;5.35;5.13;;;9.30;99.90;;;;;;4191092;28;20131;-77
2022/05/11 02:53:08;;;;;;;3.92;3.83;;;9.20;99.90;;;;;;4189147;28;20075;-77
2022/05/11 02:55:10;;;;;;;31.98;4.78;;;9.30;99.90;;;;;;4160205;28;20530;-77
2022/05/11 02:57:19;;;;;;;59.60;5.78;;;9.20;99.90;;;;;;4190333;28;20056;-77
2022/05/11 02:59:23;;;;;;;40.38;5.85;;;9.00;99.90;;;;;;4188408;28;20041;-77
2022/05/11 03:01:26;;;;;;;4.65;4.55;;;8.90;99.90;;;;;;4178100;28;20053;-77
2022/05/11 03:03:33;;;;;;;5.15;4.95;;;8.90;99.90;;;;;;4189766;28;20493;-78
2022/05/11 03:05:40;;;;;;;66.53;5.97;;;9.00;99.90;;;;;;4193215;28;20079;-77
2022/05/11 03:07:42;;;;;;;94.25;6.90;;;9.00;99.90;;;;;;4185452;28;20044;-77
2022/05/11 03:09:44;;;;;;;111.57;7.25;;;8.90;99.90;;;;;;4173194;28;20120;-77
2022/05/11 03:11:47;;;;;;;114.15;8.90;;;8.80;99.90;;;;;;4180583;28;20049;-77
2022/05/11 03:13:52;;;;;;;92.40;7.53;;;8.70;99.90;;;;;;4191295;28;20074;-78
2022/05/11 03:16:00;;;;;;;5.25;5.10;;;8.70;99.90;;;;;;4172555;28;20091;-77
2022/05/11 03:18:03;;;;;;;5.63;5.32;;;8.70;99.90;;;;;;4187781;28;20485;-77
2022/05/11 03:20:08;;;;;;;4.32;4.22;;;8.80;99.90;;;;;;4162267;28;20148;-77
2022/05/11 03:22:10;;;;;;;51.15;6.35;;;8.90;99.90;;;;;;4180138;28;20140;-77
2022/05/11 03:24:12;;;;;;;32.60;5.53;;;8.90;99.90;;;;;;4180289;28;20044;-77
2022/05/11 03:26:15;;;;;;;50.90;6.13;;;8.70;99.90;;;;;;4195165;28;20448;-77
2022/05/11 03:28:17;;;;;;;4.43;4.32;;;8.60;99.90;;;;;;4189558;28;20051;-78
2022/05/11 03:30:20;;;;;;;3.88;3.78;;;8.60;99.90;;;;;;4178948;28;20048;-78
2022/05/11 03:34:43;;;;;;;36.25;4.85;;;8.80;99.90;;;;;;4190385;28;20049;-77
2022/05/11 03:36:45;;;;;;;10.07;4.88;;;8.60;99.90;;;;;;4180085;28;20044;-77
2022/05/11 03:38:47;;;;;;;12.60;5.03;;;8.70;99.90;;;;;;4191949;28;20069;-79
2022/05/11 03:40:49;;;;;;;4.68;4.57;;;8.60;99.90;;;;;;4195447;28;20060;-77
2022/05/11 03:42:51;;;;;;;135.43;10.02;;;8.60;99.90;;;;;;4196526;28;20049;-78
2022/05/11 03:44:54;;;;;;;85.43;7.20;;;8.60;99.90;;;;;;4194893;28;20064;-77
2022/05/11 03:46:58;;;;;;;;;;;8.50;99.90;;;;;;4179113;28;20128;-77
2022/05/11 03:49:00;;;;;;;9.38;5.85;;;8.50;99.90;;;;;;4178604;28;20011;-77
2022/05/11 03:51:02;;;;;;;146.57;10.32;;;8.50;99.90;;;;;;4194778;28;20079;-77
2022/05/11 03:53:04;;;;;;;175.15;10.45;;;8.50;99.90;;;;;;4178567;28;20052;-77
2022/05/11 03:55:11;;;;;;;117.70;8.98;;;8.40;99.90;;;;;;4196231;28;20049;-78
2022/05/11 03:57:13;;;;;;;61.10;6.05;;;8.30;99.90;;;;;;4188344;28;20045;-77
2022/05/11 03:59:15;;;;;;;29.75;6.07;;;8.30;99.90;;;;;;4179813;28;20045;-77
2022/05/11 04:01:17;;;;;;;41.50;7.25;;;8.30;99.90;;;;;;4194441;28;20041;-78
2022/05/11 04:03:19;;;;;;;53.03;7.15;;;8.30;99.90;;;;;;4196150;28;20044;-77
2022/05/11 04:05:22;;;;;;;49.47;7.13;;;8.30;99.90;;;;;;4178534;28;20103;-77
2022/05/11 04:07:25;;;;;;;67.15;7.50;;;8.30;99.90;;;;;;4183281;28;20075;-77
2022/05/11 04:09:27;;;;;;;98.68;10.93;;;8.30;99.90;;;;;;4179515;28;20047;-77
2022/05/11 04:11:29;;;;;;;61.55;7.57;;;8.30;99.90;;;;;;4185057;28;20043;-77
2022/05/11 04:13:31;;;;;;;9.68;6.78;;;8.20;99.90;;;;;;4194832;28;20554;-77
2022/05/11 04:15:34;;;;;;;29.75;7.05;;;8.30;99.90;;;;;;4193724;28;20420;-77
2022/05/11 04:17:36;;;;;;;28.52;6.45;;;8.30;99.90;;;;;;4179430;28;20407;-77
2022/05/11 04:19:39;;;;;;;;;;;8.20;99.90;;;;;;4178305;28;20473;-77
2022/05/11 04:21:41;;;;;;;4.30;4.20;;;8.20;99.90;;;;;;4161940;28;19925;-77
2022/05/11 04:23:43;;;;;;;4.53;4.43;;;8.20;99.90;;;;;;4177239;28;20079;-78
2022/05/11 04:25:46;;;;;;;5.40;5.00;;;8.30;99.90;;;;;;4189610;28;20056;-78
2022/05/11 04:27:48;;;;;;;5.43;4.90;;;8.40;99.90;;;;;;4179380;28;20052;-78
2022/05/11 04:29:50;;;;;;;6.18;4.13;;;8.30;99.90;;;;;;4191620;28;20052;-77
2022/05/11 04:31:55;;;;;;;3.90;3.70;;;8.20;99.90;;;;;;4196028;28;20060;-77
2022/05/11 04:33:57;;;;;;;9.13;3.65;;;8.30;99.90;;;;;;4195690;28;20049;-77
2022/05/11 04:36:00;;;;;;;58.90;4.63;;;8.40;99.90;;;;;;4195875;28;20155;-77
2022/05/11 04:38:06;;;;;;;33.95;3.72;;;8.30;99.90;;;;;;4193797;28;20053;-77
2022/05/11 04:40:11;;;;;;;3.55;3.47;;;8.20;99.90;;;;;;4178406;28;20528;-78
2022/05/11 04:42:17;;;;;;;3.15;3.15;;;8.20;99.90;;;;;;4179366;28;20508;-77
2022/05/11 04:44:19;;;;;;;4.07;3.97;;;8.40;99.90;;;;;;4184207;28;20074;-77
2022/05/11 04:46:22;;;;;;;14.63;3.97;;;8.40;99.90;;;;;;4179746;28;20057;-77
2022/05/11 04:48:25;;;;;;;2.70;2.70;;;8.30;99.90;;;;;;4177985;28;20118;-77
2022/05/11 04:50:27;;;;;;;;;;;8.40;99.90;;;;;;4171843;28;20049;-77
2022/05/11 04:52:29;;;;;;;2.40;2.40;;;8.50;99.90;;;;;;4195632;28;20342;-77
2022/05/11 04:54:51;;;;;;;3.88;3.78;;;8.60;99.90;;;;;;4184458;28;20518;-78
2022/05/11 04:56:53;;;;;;;4.00;3.90;;;8.60;99.90;;;;;;4195557;28;20052;-76
2022/05/11 04:58:58;;;;;;;3.72;3.63;;;8.70;99.90;;;;;;4195661;28;20052;-77
2022/05/11 05:01:00;;;;;;;4.00;3.80;;;8.70;99.90;;;;;;4185080;28;20416;-77
2022/05/11 05:03:06;;;;;;;4.10;4.00;;;8.60;99.90;;;;;;4195008;28;20090;-78
2022/05/11 05:05:10;;;;;;;4.60;4.40;;;8.60;99.90;;;;;;4179756;28;20533;-77
2022/05/11 05:07:13;;;;;;;4.05;3.95;;;8.60;99.90;;;;;;4188589;28;20178;-77
2022/05/11 05:09:15;;;;;;;6.15;5.63;;;8.60;99.90;;;;;;4177499;28;20037;-77
2022/05/11 05:11:17;;;;;;;9.63;5.50;;;8.60;99.90;;;;;;4182198;28;20041;-77
2022/05/11 05:13:19;;;;;;;10.45;6.05;;;8.60;99.90;;;;;;4177548;28;20448;-77
2022/05/11 05:15:22;;;;;;;138.52;10.88;;;8.60;99.90;;;;;;4194959;28;20041;-77
2022/05/11 05:17:25;;;;;;;38.30;7.68;;;8.60;99.90;;;;;;4186863;28;20048;-77
2022/05/11 05:19:28;;;;;;;42.22;7.35;;;8.60;99.90;;;;;;4193618;28;20119;-77
2022/05/11 05:21:31;;;;;;;65.13;8.35;;;8.60;99.90;;;;;;4160458;28;20046;-78
2022/05/11 05:23:35;;;;;;;13.93;6.25;;;8.70;99.90;;;;;;4187237;28;20132;-77
2022/05/11 05:25:38;;;;;;;163.68;12.80;;;8.70;99.90;;;;;;4194791;28;20555;-83
2022/05/11 05:27:40;;;;;;;129.85;11.70;;;8.70;99.90;;;;;;4181585;28;20703;-83
2022/05/11 05:32:03;;;;;;;31.98;7.35;;;8.80;99.90;;;;;;4192514;28;20412;-84
2022/05/11 05:34:05;;;;;;;35.38;8.13;;;8.90;99.90;;;;;;4177173;28;20088;-83
2022/05/11 05:36:10;;;;;;;29.85;6.18;;;9.00;99.90;;;;;;4194620;28;20048;-83
2022/05/11 05:38:12;;;;;;;41.25;8.05;;;9.00;99.90;;;;;;4177423;28;20057;-84
2022/05/11 05:40:14;;;;;;;7.95;6.18;;;9.00;99.90;;;;;;4177387;28;20493;-83
2022/05/11 05:42:18;;;;;;;7.00;6.80;;;9.10;99.90;;;;;;4182951;28;20049;-83
2022/05/11 05:44:20;;;;;;;7.00;6.70;;;9.30;99.90;;;;;;4177009;28;20053;-83
2022/05/11 05:46:24;;;;;;;5.80;5.70;;;9.30;99.90;;;;;;4177047;28;20056;-83
2022/05/11 05:48:27;;;;;;;6.45;6.35;;;9.40;99.90;;;;;;4160519;28;20433;-83
2022/05/11 05:50:30;;;;;;;6.22;6.03;;;9.60;99.90;;;;;;4160813;28;20595;-83
2022/05/11 05:52:32;;;;;;;7.30;6.43;;;9.70;99.90;;;;;;4176589;28;20041;-84
2022/05/11 05:54:36;;;;;;;6.50;6.00;;;9.80;99.90;;;;;;4177033;28;20041;-83
2022/05/11 05:56:39;;;;;;;7.13;6.90;;;9.80;99.90;;;;;;4160674;28;20055;-85
2022/05/11 05:58:44;;;;;;;5.65;5.53;;;10.00;99.90;;;;;;4177858;28;20479;-85
2022/05/11 06:00:46;;;;;;;6.43;5.68;;;10.00;99.90;;;;;;4160939;28;20057;-85
2022/05/11 06:02:49;;;;;;;5.95;5.68;;;10.10;99.90;;;;;;4167294;28;20052;-85
2022/05/11 06:04:51;;;;;;;7.32;6.85;;;10.30;99.90;;;;;;4170652;28;20060;-85
2022/05/11 06:06:53;;;;;;;6.55;6.25;;;10.50;99.90;;;;;;4162560;28;20053;-85
2022/05/11 06:08:55;;;;;;;6.20;5.82;;;10.70;99.90;;;;;;4178893;28;20124;-85
2022/05/11 06:10:59;;;;;;;5.93;5.50;;;10.80;99.90;;;;;;4170019;28;20120;-85
2022/05/11 06:13:02;;;;;;;5.90;5.68;;;10.90;99.90;;;;;;4171554;28;20056;-85
2022/05/11 06:15:05;;;;;;;4.85;4.75;;;11.20;99.90;;;;;;4162147;28;20081;-85
2022/05/11 06:17:19;;;;;;;6.25;4.88;;;11.40;99.90;;;;;;4177596;28;20438;-85
2022/05/11 06:19:23;;;;;;;6.15;5.85;;;11.40;99.90;;;;;;4145873;28;20070;-85
2022/05/11 06:21:25;;;;;;;6.47;5.80;;;11.40;99.90;;;;;;4158559;28;20050;-85
2022/05/11 06:23:27;;;;;;;5.55;5.25;;;11.50;99.90;;;;;;4169739;28;20572;-85
2022/05/11 06:25:30;;;;;;;5.15;4.75;;;11.60;99.90;;;;;;4160740;28;20053;-85
2022/05/11 06:27:32;;;;;;;5.32;4.95;;;11.70;99.90;;;;;;4175972;28;20056;-85
2022/05/11 06:29:35;;;;;;;5.53;5.32;;;11.80;99.90;;;;;;4159834;28;20240;-85
2022/05/11 06:31:37;;;;;;;;;;;12.00;99.90;;;;;;4159980;28;20406;-84
2022/05/11 06:33:41;;;;;;;3.63;3.53;;;12.30;99.90;;;;;;4160107;28;19921;-85
2022/05/11 06:35:45;;;;;;;5.43;4.95;;;12.50;99.90;;;;;;4175096;28;20056;-85
2022/05/11 06:37:48;;;;;;;4.60;4.30;;;12.70;99.90;;;;;;4151350;28;20490;-84
2022/05/11 06:39:53;;;;;;;3.95;3.63;;;12.90;99.90;;;;;;4169582;28;20061;-84
2022/05/11 06:41:56;;;;;;;4.72;4.18;;;13.00;99.90;;;;;;4179961;28;20040;-85
2022/05/11 06:43:58;;;;;;;10.02;4.93;;;13.10;99.90;;;;;;4162103;28;20496;-86
2022/05/11 06:46:00;;;;;;;3.55;3.08;;;13.10;99.90;;;;;;4179559;28;20127;-85
2022/05/11 06:48:02;;;;;;;3.47;3.17;;;13.20;99.90;;;;;;4162906;28;20604;-85
2022/05/11 06:50:04;;;;;;;4.55;4.35;;;13.40;99.90;;;;;;4154382;28;20054;-85
2022/05/11 06:52:07;;;;;;;3.38;3.17;;;13.60;99.90;;;;;;4163479;28;20037;-84
2022/05/11 07:01:14;;;;;;;3.35;3.13;;;14.20;99.90;;;;;;4179690;28;20380;-85
2022/05/11 07:03:18;;;;;;;4.28;3.13;;;14.60;99.90;;;;;;4173010;28;20045;-85
2022/05/11 07:05:22;;;;;;;4.63;3.60;;;14.80;99.90;;;;;;4163134;28;20124;-85
2022/05/11 07:07:25;;;;;;;3.25;3.03;;;14.80;99.90;;;;;;4179703;28;20049;-84
2022/05/11 07:09:32;;;;;;;3.03;2.85;;;15.00;99.90;;;;;;4177903;28;20505;-84
2022/05/11 07:13:55;;;;;;;3.72;3.53;;;15.30;99.90;;;;;;4180641;28;20051;-85
2022/05/11 07:15:58;;;;;;;;;;;15.10;99.90;;;;;;4180054;28;20045;-84
2022/05/11 07:18:03;;;;;;;;;;;15.20;99.90;;;;;;4181300;28;19972;-84
2022/05/11 07:20:12;;;;;;;2.90;2.65;;;15.50;99.90;;;;;;4179678;28;19925;-84
2022/05/11 07:22:15;;;;;;;2.83;2.08;;;15.60;99.90;;;;;;4180410;28;20053;-84
2022/05/11 07:24:18;;;;;;;6.13;2.70;;;15.90;99.90;;;;;;4177760;28;20596;-84
2022/05/11 07:26:20;;;;;;;;;;;16.40;99.90;;;;;;4161434;28;20071;-84
2022/05/11 07:28:22;;;;;;;6.03;2.92;;;16.30;99.90;;;;;;4167544;28;19931;-85
2022/05/11 07:30:32;;;;;;;2.63;2.40;;;16.50;99.90;;;;;;4166093;28;20045;-85
2022/05/11 07:32:41;;;;;;;4.78;2.65;;;16.60;99.90;;;;;;4180394;28;20422;-85
2022/05/11 07:34:45;;;;;;;4.93;2.28;;;16.60;99.90;;;;;;4180110;28;20081;-85
2022/05/11 07:36:54;;;;;;;5.85;2.63;;;16.80;99.90;;;;;;4162873;28;20056;-85
2022/05/11 07:38:57;;;;;;;2.13;1.90;;;16.90;99.90;;;;;;4163695;28;20136;-84
2022/05/11 07:40:59;;;;;;;2.88;2.58;;;17.20;99.90;;;;;;4174233;28;20479;-84
2022/05/11 07:43:01;;;;;;;3.05;2.10;;;17.40;99.90;;;;;;4162830;28;20059;-84
2022/05/11 07:45:04;;;;;;;1.98;1.58;;;17.80;99.90;;;;;;4178084;28;20091;-84
2022/05/11 07:47:06;;;;;;;;;;;18.20;99.90;;;;;;4189045;28;20101;-85
2022/05/11 07:49:10;;;;;;;5.93;1.63;;;18.20;99.90;;;;;;4162452;28;19931;-84
2022/05/11 07:51:12;;;;;;;1.83;1.67;;;18.60;99.90;;;;;;4195075;28;20565;-84
2022/05/11 07:53:14;;;;;;;2.30;2.05;;;18.60;99.90;;;;;;4195820;28;20052;-86
2022/05/11 07:55:18;;;;;;;4.97;2.50;;;18.60;99.90;;;;;;4189102;28;20051;-84
2022/05/11 07:59:57;;;;;;;3.25;1.52;;;18.70;99.90;;;;;;4188002;28;20044;-85
2022/05/11 08:01:59;;;;;;;1.80;1.30;;;18.90;99.90;;;;;;4178992;28;20049;-85
2022/05/11 08:04:03;;;;;;;1.95;1.50;;;19.10;99.90;;;;;;4178786;28;20045;-84
2022/05/11 08:06:05;;;;;;;1.58;1.48;;;19.40;99.90;;;;;;4195165;28;20049;-85
2022/05/11 08:08:08;;;;;;;2.25;1.92;;;19.40;99.90;;;;;;4195029;28;20538;-85
2022/05/11 08:10:18;;;;;;;1.98;1.33;;;19.60;99.90;;;;;;4162960;28;20096;-85
2022/05/11 08:12:21;;;;;;;3.75;1.63;;;20.10;99.90;;;;;;4185957;28;20056;-85
2022/05/11 08:14:24;;;;;;;3.08;1.20;;;20.30;99.90;;;;;;4195117;28;20052;-84
2022/05/11 08:16:28;;;;;;;3.83;1.80;;;20.20;99.90;;;;;;4178345;28;20041;-85
2022/05/11 08:18:31;;;;;;;5.18;1.63;;;20.50;99.90;;;;;;4172972;28;20045;-85
2022/05/11 08:20:38;;;;;;;3.08;1.33;;;20.80;99.90;;;;;;4179982;28;20048;-85
2022/05/11 08:22:45;;;;;;;6.13;1.70;;;20.90;99.90;;;;;;4188826;28;20062;-85
2022/05/11 08:24:49;;;;;;;5.57;1.20;;;21.00;99.90;;;;;;4195853;28;20098;-85
2022/05/11 08:26:51;;;;;;;3.60;1.27;;;21.30;99.90;;;;;;4196077;28;20048;-85
2022/05/11 08:28:54;;;;;;;5.68;1.15;;;21.30;99.90;;;;;;4177790;28;20049;-85
2022/05/11 08:33:23;;;;;;;1.85;1.58;;;21.30;99.90;;;;;;4196057;28;20056;-85
2022/05/11 08:35:46;;;;;;;5.53;1.45;;;21.30;99.90;;;;;;4178494;28;20709;-85
2022/05/11 08:37:49;;;;;;;3.97;2.22;;;21.40;99.90;;;;;;4168587;28;20056;-85
2022/05/11 08:39:51;;;;;;;6.75;1.00;;;21.50;99.90;;;;;;4178089;28;20087;-85
2022/05/11 08:41:53;;;;;;;5.68;1.45;;;21.40;99.90;;;;;;4178147;28;20051;-85
2022/05/11 08:44:04;;;;;;;1.20;0.98;;;21.60;99.90;;;;;;4178134;28;20152;-85
2022/05/11 08:46:43;;;;;;;4.50;1.25;;;22.00;99.90;;;;;;4195568;28;20052;-85
2022/05/11 08:49:05;;;;;;;3.55;1.55;;;22.20;99.90;;;;;;4177898;28;20057;-86
2022/05/11 08:51:12;;;;;;;3.97;1.00;;;22.70;99.90;;;;;;4194699;28;20116;-85
2022/05/11 08:53:28;;;;;;;3.05;1.00;;;22.40;99.90;;;;;;4195703;28;20086;-85
2022/05/11 08:55:47;;;;;;;4.80;1.35;;;22.50;99.90;;;;;;4195296;28;20045;-85
2022/05/11 08:57:50;;;;;;;2.92;1.02;;;22.60;99.90;;;;;;4177831;28;20092;-85
2022/05/11 08:59:58;;;;;;;5.55;0.90;;;23.00;99.90;;;;;;4194157;28;20567;-85
2022/05/11 09:02:14;;;;;;;3.10;0.98;;;22.80;99.90;;;;;;4194541;28;20416;-86
2022/05/11 09:04:22;;;;;;;3.70;1.35;;;22.70;99.90;;;;;;4195430;28;20504;-85
2022/05/11 09:06:30;;;;;;;1.45;1.35;;;22.50;99.90;;;;;;4172105;28;20465;-85
2022/05/11 09:08:36;;;;;;;5.45;1.10;;;22.20;99.90;;;;;;4178777;28;20057;-85
2022/05/11 09:10:39;;;;;;;6.30;2.05;;;22.20;99.90;;;;;;4175618;28;20853;-85
2022/05/11 09:12:41;;;;;;;2.17;1.38;;;22.40;99.90;;;;;;4182430;28;20036;-85
2022/05/11 09:14:50;;;;;;;2.20;0.90;;;23.10;99.90;;;;;;4195302;28;20060;-86
2022/05/11 09:16:52;;;;;;;3.45;1.02;;;23.20;99.90;;;;;;4181092;28;20081;-84
2022/05/11 09:18:56;;;;;;;4.90;1.23;;;23.10;99.90;;;;;;4177091;28;20049;-85
2022/05/11 09:21:01;;;;;;;4.72;1.02;;;22.90;99.90;;;;;;4195102;28;20051;-85
2022/05/11 09:23:06;;;;;;;1.10;1.10;;;23.10;99.90;;;;;;4194886;28;20056;-85
2022/05/11 09:25:24;;;;;;;7.30;0.90;;;23.10;99.90;;;;;;4177678;28;20053;-86
2022/05/11 09:27:31;;;;;;;4.20;1.33;;;23.20;99.90;;;;;;4177178;28;20049;-85
2022/05/11 09:29:40;;;;;;;2.03;0.90;;;23.40;99.90;;;;;;4178320;28;20048;-85
2022/05/11 09:31:43;;;;;;;2.78;1.10;;;23.20;99.90;;;;;;4182268;28;20050;-85
2022/05/11 09:33:57;;;;;;;4.70;1.25;;;23.10;99.90;;;;;;4194958;28;20049;-85
2022/05/11 09:36:40;;;;;;;1.65;1.00;;;23.30;99.90;;;;;;4177193;28;20487;-85
2022/05/11 09:38:46;;;;;;;4.43;1.00;;;23.50;99.90;;;;;;4177271;28;20517;-85
2022/05/11 09:40:58;;;;;;;2.10;1.27;;;23.50;99.90;;;;;;4178340;28;20052;-85
2022/05/11 09:43:05;;;;;;;6.18;1.20;;;23.70;99.90;;;;;;4170576;28;20037;-85
2022/05/11 09:45:07;;;;;;;3.28;1.27;;;23.60;99.90;;;;;;4193091;28;20066;-85
2022/05/11 09:48:02;;;;;;;;;;;23.30;99.90;;;;;;4176962;28;20123;-85
2022/05/11 09:50:22;;;;;;;1.73;1.10;;;23.40;99.90;;;;;;4158680;28;19925;-85
2022/05/11 09:52:35;;;;;;;3.47;1.08;;;23.60;99.90;;;;;;4139710;28;20130;-84
2022/05/11 09:54:46;;;;;;;7.85;0.90;;;23.70;99.90;;;;;;4159416;28;20425;-85
2022/05/11 09:57:04;;;;;;;4.43;1.33;;;23.90;99.90;;;;;;4159544;28;20074;-84
2022/05/11 09:59:28;;;;;;;2.70;1.20;;;24.10;99.90;;;;;;4159291;28;20053;-85
2022/05/11 10:01:31;;;;;;;1.35;1.02;;;23.70;99.90;;;;;;4141633;28;20046;-85
2022/05/11 10:03:33;;;;;;;1.33;0.93;;;23.70;99.90;;;;;;4155639;28;20120;-85
2022/05/11 10:05:47;;;;;;;4.20;1.40;;;23.80;99.90;;;;;;4140816;28;20096;-85
2022/05/11 10:07:54;;;;;;;0.95;0.90;;;24.00;99.90;;;;;;4159342;28;20057;-85
2022/05/11 10:10:21;;;;;;;1.17;1.02;;;23.80;99.90;;;;;;4138963;28;20193;-85
2022/05/11 10:12:28;;;;;;;2.72;1.33;;;23.80;99.90;;;;;;4158144;28;20525;-85
2022/05/11 10:21:58;;;;;;;4.05;1.10;;;24.20;99.80;;;;;;4158239;28;20056;-85
2022/05/11 10:24:23;;;;;;;2.00;0.90;;;24.10;99.10;;;;;;4159796;28;20049;-85
2022/05/11 10:26:38;;;;;;;3.30;0.82;;;24.20;99.90;;;;;;4172324;28;20101;-85
2022/05/11 10:28:41;;;;;;;1.50;1.00;;;24.40;99.90;;;;;;4187738;28;20098;-85
2022/05/11 10:30:52;;;;;;;1.58;0.80;;;24.50;99.70;;;;;;4165224;28;20051;-84
2022/05/11 10:33:16;;;;;;;2.78;0.95;;;24.60;99.40;;;;;;4187259;28;20048;-84
2022/05/11 10:35:32;;;;;;;1.75;0.80;;;25.00;99.60;;;;;;4176191;28;20060;-85
2022/05/11 10:37:39;;;;;;;1.05;0.90;;;25.10;99.90;;;;;;4165775;28;20160;-85
2022/05/11 10:39:59;;;;;;;2.33;0.80;;;24.80;97.80;;;;;;4176403;28;20048;-85
2022/05/11 10:42:24;;;;;;;1.77;0.80;;;24.80;98.60;;;;;;4193133;28;20049;-85
2022/05/11 10:44:45;;;;;;;4.63;0.90;;;24.60;99.00;;;;;;4185503;28;20131;-85
2022/05/11 10:46:54;;;;;;;3.30;0.90;;;24.40;97.60;;;;;;4189244;28;20043;-85
2022/05/11 10:49:15;;;;;;;3.60;0.88;;;24.10;97.50;;;;;;4190624;28;20064;-87
2022/05/11 10:51:55;;;;;;;8.00;1.00;;;24.00;98.10;;;;;;4190696;28;20526;-86
2022/05/11 10:54:21;;;;;;;3.53;0.70;;;24.10;97.90;;;;;;4162975;28;20064;-85
2022/05/11 10:56:36;;;;;;;2.45;0.90;;;24.60;97.00;;;;;;4176295;28;20128;-88
2022/05/11 10:59:06;;;;;;;2.58;0.80;;;24.70;96.80;;;;;;4169766;28;20064;-85
2022/05/11 11:01:17;;;;;;;3.33;0.90;;;24.80;98.50;;;;;;4176013;28;20041;-85
2022/05/11 11:03:34;;;;;;;2.15;0.80;;;24.90;96.40;;;;;;4193299;28;20059;-85
2022/05/11 11:08:45;;;;;;;2.17;0.90;;;25.10;96.30;;;;;;4193832;28;20545;-85
2022/05/11 11:11:05;;;;;;;1.45;0.90;;;25.10;95.30;;;;;;4193986;28;20668;-85
2022/05/11 11:13:45;;;;;;;0.90;0.75;;;25.00;96.00;;;;;;4159880;28;20076;-85
2022/05/11 11:15:50;;;;;;;1.67;1.00;;;24.90;95.80;;;;;;4165591;28;20053;-84
2022/05/11 11:17:57;;;;;;;2.83;0.82;;;25.00;95.20;;;;;;4188849;28;20054;-85
2022/05/11 11:20:05;;;;;;;2.13;0.70;;;25.30;95.30;;;;;;4191319;28;20059;-86
2022/05/11 11:22:09;;;;;;;2.08;0.70;;;25.70;95.80;;;;;;4177544;28;20060;-86
2022/05/11 11:24:17;;;;;;;8.43;1.10;;;25.80;94.30;;;;;;4177435;28;20053;-85
2022/05/11 11:26:28;;;;;;;5.57;1.48;;;25.80;95.00;;;;;;4182080;28;20053;-85
2022/05/11 11:28:56;;;;;;;1.90;0.90;;;25.50;93.50;;;;;;4179148;28;20481;-86
2022/05/11 11:30:59;;;;;;;2.05;0.70;;;25.40;94.50;;;;;;4182009;28;20053;-85
2022/05/11 11:33:15;;;;;;;1.80;1.00;;;25.50;92.60;;;;;;4178672;28;20060;-86
2022/05/11 11:35:23;;;;;;;1.30;0.60;;;25.30;93.60;;;;;;4197459;28;20055;-85
2022/05/11 11:37:29;;;;;;;4.60;0.80;;;25.30;94.60;;;;;;4181527;28;20052;-88